createdAt,value
2019-02-23T00:02:31.346Z,54.31
2019-02-23T00:06:35.571Z,55.14
2019-02-23T00:10:40.141Z,54.06
2019-02-23T00:14:44.368Z,54.29
2019-02-23T00:18:48.608Z,54.53
2019-02-23T00:22:52.845Z,54.88
2019-02-23T00:26:57.080Z,53.93
2019-02-23T00:31:01.292Z,54.32
2019-02-23T00:35:05.616Z,54.06
2019-02-23T00:39:10.108Z,54.67
2019-02-23T00:43:14.330Z,55.24
2019-02-23T00:47:18.518Z,54.66
2019-02-23T00:51:22.741Z,55.24
2019-02-23T00:55:26.952Z,54.54
2019-02-23T00:59:31.169Z,54.92
2019-02-23T01:03:35.393Z,55.25
2019-02-23T01:07:39.986Z,56.68
2019-02-23T01:11:44.209Z,56.03
2019-02-23T01:15:48.425Z,55.60
2019-02-23T01:19:52.644Z,57.38
2019-02-23T01:23:56.874Z,56.35
2019-02-23T01:28:01.104Z,56.18
2019-02-23T01:32:05.381Z,55.11
2019-02-23T01:36:09.666Z,55.12
2019-02-23T01:40:13.898Z,55.91
2019-02-23T01:44:18.115Z,55.67
2019-02-23T01:48:22.656Z,55.69
2019-02-23T01:52:26.889Z,54.45
2019-02-23T01:56:31.093Z,54.41
2019-02-23T02:00:35.924Z,56.04
2019-02-23T02:04:40.216Z,54.88
2019-02-23T02:08:45.016Z,55.94
2019-02-23T02:12:49.190Z,55.35
2019-02-23T02:16:53.408Z,55.47
2019-02-23T02:20:57.630Z,55.36
2019-02-23T02:25:01.942Z,55.95
2019-02-23T02:29:06.181Z,56.10
2019-02-23T02:33:10.408Z,55.92
2019-02-23T02:37:14.673Z,55.63
2019-02-23T02:41:18.875Z,55.89
2019-02-23T02:45:23.082Z,56.98
2019-02-23T02:49:27.330Z,56.99
2019-02-23T02:53:31.579Z,56.70
2019-02-23T02:57:35.816Z,57.35
2019-02-23T03:01:40.036Z,57.17
2019-02-23T03:05:44.274Z,57.04
2019-02-23T03:09:48.499Z,56.36
2019-02-23T03:13:52.730Z,56.47
2019-02-23T03:17:56.912Z,56.72
2019-02-23T03:22:01.126Z,56.90
2019-02-23T03:26:05.356Z,57.23
2019-02-23T03:30:11.048Z,57.18
2019-02-23T03:34:15.238Z,56.79
2019-02-23T03:38:19.460Z,56.63
2019-02-23T03:42:23.688Z,56.70
2019-02-23T03:46:27.881Z,56.27
2019-02-23T03:50:32.162Z,56.86
2019-02-23T03:54:36.402Z,56.97
2019-02-23T03:58:40.567Z,56.48
2019-02-23T04:02:45.136Z,55.66
2019-02-23T04:06:49.461Z,55.49
2019-02-23T04:10:53.680Z,55.64
2019-02-23T04:14:58.334Z,55.40
2019-02-23T04:19:02.566Z,55.38
2019-02-23T04:23:06.754Z,56.16
2019-02-23T04:27:11.002Z,55.68
2019-02-23T04:31:15.244Z,54.65
2019-02-23T04:35:19.433Z,55.43
2019-02-23T04:39:23.688Z,55.41
2019-02-23T04:43:27.942Z,55.78
2019-02-23T04:47:32.126Z,55.11
2019-02-23T04:51:36.364Z,54.57
2019-02-23T04:55:40.591Z,55.13
2019-02-23T04:59:44.861Z,55.35
2019-02-23T05:03:49.081Z,55.74
2019-02-23T05:07:53.316Z,54.87
2019-02-23T05:11:57.594Z,54.88
2019-02-23T05:16:01.870Z,54.36
2019-02-23T05:20:06.328Z,54.07
2019-02-23T05:24:10.558Z,53.55
2019-02-23T05:28:14.765Z,54.98
2019-02-23T05:32:18.991Z,54.90
2019-02-23T05:36:23.597Z,54.46
2019-02-23T05:40:27.829Z,54.50
2019-02-23T05:44:32.047Z,54.32
2019-02-23T05:48:36.303Z,54.46
2019-02-23T05:52:40.537Z,54.59
2019-02-23T05:56:44.796Z,54.62
2019-02-23T06:00:49.052Z,54.16
2019-02-23T06:04:53.278Z,54.59
2019-02-23T06:08:57.515Z,55.16
2019-02-23T06:13:01.738Z,55.06
2019-02-23T06:17:05.966Z,54.89
2019-02-23T06:21:10.261Z,54.81
2019-02-23T06:25:14.485Z,54.11
2019-02-23T06:29:18.711Z,54.26
2019-02-23T06:33:22.932Z,53.79
2019-02-23T06:37:27.162Z,54.23
2019-02-23T06:41:31.341Z,54.00
2019-02-23T06:45:35.568Z,54.22
2019-02-23T06:49:39.893Z,54.24
2019-02-23T06:53:44.143Z,54.13
2019-02-23T06:57:48.362Z,53.27
2019-02-23T07:01:52.555Z,53.95
2019-02-23T07:05:56.783Z,54.53
2019-02-23T07:10:00.990Z,54.23
2019-02-23T07:14:05.248Z,53.96
2019-02-23T07:18:09.460Z,54.21
2019-02-23T07:22:15.868Z,54.95
2019-02-23T07:26:19.918Z,53.31
2019-02-23T07:30:24.138Z,52.97
2019-02-23T07:34:28.747Z,52.79
2019-02-23T07:38:35.454Z,53.70
2019-02-23T07:42:38.889Z,53.17
2019-02-23T07:46:43.154Z,53.90
2019-02-23T07:50:47.390Z,54.43
2019-02-23T07:54:51.665Z,53.06
2019-02-23T07:58:55.859Z,53.01
2019-02-23T08:03:00.079Z,51.58
2019-02-23T08:07:05.254Z,52.34
2019-02-23T08:11:09.482Z,51.68
2019-02-23T08:15:13.720Z,52.08
2019-02-23T08:19:17.897Z,50.27
2019-02-23T08:23:22.123Z,50.94
2019-02-23T08:27:26.441Z,49.51
2019-02-23T08:31:30.646Z,49.18
2019-02-23T08:35:35.033Z,50.50
2019-02-23T08:39:39.293Z,50.78
2019-02-23T08:43:43.517Z,49.64
2019-02-23T08:47:47.748Z,49.23
2019-02-23T08:51:52.332Z,48.41
2019-02-23T08:55:56.517Z,50.69
2019-02-23T09:00:00.748Z,48.13
2019-02-23T09:04:04.949Z,47.72
2019-02-23T09:08:09.189Z,48.89
2019-02-23T09:12:13.378Z,48.63
2019-02-23T09:16:17.689Z,48.24
2019-02-23T09:20:29.047Z,48.07
2019-02-23T09:24:27.864Z,44.88
2019-02-23T09:28:32.455Z,47.44
2019-02-23T09:32:36.710Z,46.63
2019-02-23T09:36:40.897Z,46.51
2019-02-23T09:40:45.121Z,45.59
2019-02-23T09:44:49.340Z,46.63
2019-02-23T09:48:53.574Z,46.72
2019-02-23T09:52:57.827Z,45.06
2019-02-23T09:57:02.168Z,45.60
2019-02-23T10:01:06.422Z,45.17
2019-02-23T10:05:10.658Z,46.92
2019-02-23T10:09:14.829Z,45.70
2019-02-23T10:13:19.050Z,43.85
2019-02-23T10:17:23.242Z,43.98
2019-02-23T10:21:27.522Z,43.23
2019-02-23T10:25:31.792Z,44.75
2019-02-23T10:29:36.017Z,45.30
2019-02-23T10:33:47.390Z,43.53
2019-02-23T10:37:46.175Z,41.84
2019-02-23T10:41:50.397Z,44.79
2019-02-23T10:45:55.030Z,44.70
2019-02-23T10:49:59.214Z,45.45
2019-02-23T10:54:03.437Z,45.68
2019-02-23T10:58:07.818Z,44.80
2019-02-23T11:02:12.092Z,45.41
2019-02-23T11:06:16.379Z,45.34
2019-02-23T11:10:20.929Z,45.08
2019-02-23T11:14:25.147Z,44.59
2019-02-23T11:18:29.380Z,45.09
2019-02-23T11:22:33.597Z,42.49
2019-02-23T11:26:37.825Z,44.51
2019-02-23T11:30:42.365Z,44.91
2019-02-23T11:34:46.603Z,44.57
2019-02-23T11:38:50.838Z,42.17
2019-02-23T11:42:55.086Z,43.25
2019-02-23T11:47:00.248Z,44.22
2019-02-23T11:51:04.751Z,41.35
2019-02-23T11:55:09.347Z,41.90
2019-02-23T11:59:13.586Z,42.54
2019-02-23T12:03:17.829Z,43.73
2019-02-23T12:07:22.052Z,44.05
2019-02-23T12:11:26.284Z,44.09
2019-02-23T12:15:30.517Z,43.32
2019-02-23T12:19:34.696Z,43.73
2019-02-23T12:23:39.274Z,43.75
2019-02-23T12:27:43.459Z,44.50
2019-02-23T12:31:47.684Z,40.49
2019-02-23T12:35:52.277Z,42.15
2019-02-23T12:39:56.534Z,43.71
2019-02-23T12:44:00.788Z,43.78
2019-02-23T12:48:05.011Z,44.41
2019-02-23T12:52:09.270Z,43.55
2019-02-23T12:56:13.501Z,42.53
2019-02-23T13:00:17.731Z,43.07
2019-02-23T13:04:22.073Z,42.32
2019-02-23T13:08:37.620Z,41.92
2019-02-23T13:13:13.348Z,41.32
2019-02-23T13:17:42.819Z,40.71
2019-02-23T13:22:04.791Z,41.40
2019-02-23T13:26:27.651Z,42.00
2019-02-23T13:31:17.495Z,41.32
2019-02-23T13:35:50.134Z,42.19
2019-02-23T13:39:59.255Z,41.84
2019-02-23T13:44:40.363Z,40.98
2019-02-23T13:49:22.716Z,40.35
2019-02-23T13:53:58.067Z,40.48
2019-02-23T13:58:38.747Z,41.08
2019-02-23T14:03:19.692Z,41.22
2019-02-23T14:07:56.774Z,40.37
2019-02-23T14:12:12.475Z,41.01
2019-02-23T14:16:41.595Z,40.99
2019-02-23T14:21:25.946Z,41.05
2019-02-23T14:26:17.228Z,39.22
2019-02-23T14:31:04.634Z,38.39
2019-02-23T14:35:47.003Z,39.14
2019-02-23T14:40:28.383Z,39.23
2019-02-23T14:45:29.884Z,39.24
2019-02-23T14:50:27.370Z,37.37
2019-02-23T14:55:02.602Z,39.06
2019-02-23T14:59:39.281Z,39.90
2019-02-23T15:04:20.544Z,40.82
2019-02-23T15:08:42.607Z,39.26
2019-02-23T15:13:40.161Z,41.13
2019-02-23T15:18:37.796Z,40.29
2019-02-23T15:23:07.220Z,40.94
2019-02-23T15:27:43.641Z,41.03
2019-02-23T15:32:37.374Z,42.57
2019-02-23T15:37:06.333Z,41.63
2019-02-23T15:41:18.468Z,41.38
2019-02-23T15:46:18.528Z,41.43
2019-02-23T15:50:22.758Z,41.18
2019-02-23T15:54:29.100Z,42.60
2019-02-23T15:58:32.927Z,42.25
2019-02-23T16:02:37.123Z,42.82
2019-02-23T16:06:41.758Z,42.56
2019-02-23T16:10:45.942Z,43.24
2019-02-23T16:14:50.159Z,42.57
2019-02-23T16:18:54.588Z,42.49
2019-02-23T16:23:00.487Z,43.19
2019-02-23T16:27:06.584Z,42.45
2019-02-23T16:31:10.814Z,42.97
2019-02-23T16:35:15.791Z,43.51
2019-02-23T16:39:20.055Z,44.62
2019-02-23T16:43:25.579Z,43.90
2019-02-23T16:47:29.907Z,44.68
2019-02-23T16:51:34.876Z,44.48
2019-02-23T16:55:50.230Z,43.87
2019-02-23T16:59:45.225Z,42.91
2019-02-23T17:03:49.489Z,42.44
2019-02-23T17:07:53.672Z,43.56
2019-02-23T17:11:58.327Z,43.84
2019-02-23T17:16:03.353Z,43.92
2019-02-23T17:20:08.735Z,43.92
2019-02-23T17:24:12.897Z,43.81
2019-02-23T17:28:17.126Z,44.33
2019-02-23T17:32:21.351Z,44.28
2019-02-23T17:36:25.575Z,44.34
2019-02-23T17:40:30.856Z,44.47
2019-02-23T17:44:35.860Z,44.68
2019-02-23T17:48:40.430Z,44.96
2019-02-23T17:52:44.709Z,45.25
2019-02-23T17:56:49.151Z,45.71
2019-02-23T18:00:53.884Z,45.88
2019-02-23T18:04:58.147Z,46.02
2019-02-23T18:09:02.339Z,45.77
2019-02-23T18:13:06.558Z,46.24
2019-02-23T18:17:10.756Z,46.20
2019-02-23T18:21:16.375Z,46.13
2019-02-23T18:25:22.362Z,46.07
2019-02-23T18:29:27.530Z,46.37
2019-02-23T18:33:31.682Z,46.67
2019-02-23T18:37:36.005Z,46.80
2019-02-23T18:41:40.238Z,46.84
2019-02-23T18:45:47.608Z,46.98
2019-02-23T18:49:51.373Z,47.10
2019-02-23T18:53:56.383Z,47.01
2019-02-23T18:58:02.575Z,47.02
2019-02-23T19:02:07.793Z,47.33
2019-02-23T19:06:12.011Z,47.41
2019-02-23T19:10:17.486Z,47.46
2019-02-23T19:14:21.705Z,47.23
2019-02-23T19:18:25.880Z,47.21
2019-02-23T19:22:30.109Z,47.11
2019-02-23T19:26:38.239Z,47.16
2019-02-23T19:30:40.273Z,47.15
2019-02-23T19:34:44.513Z,47.26
2019-02-23T19:38:50.909Z,47.20
2019-02-23T19:42:55.122Z,47.34
2019-02-23T19:47:10.909Z,47.16
2019-02-23T19:51:17.105Z,46.73
2019-02-23T19:55:22.656Z,47.26
2019-02-23T19:59:29.371Z,47.33
2019-02-23T20:03:36.601Z,47.68
2019-02-23T20:07:42.369Z,47.56
2019-02-23T20:11:49.036Z,47.63
2019-02-23T20:15:54.704Z,47.38
2019-02-23T20:20:00.005Z,47.77
2019-02-23T20:24:04.267Z,47.85
2019-02-23T20:28:08.651Z,48.25
2019-02-23T20:32:12.889Z,48.04
2019-02-23T20:36:18.774Z,48.19
2019-02-23T20:40:23.364Z,48.23
2019-02-23T20:44:27.587Z,48.21
2019-02-23T20:48:31.977Z,48.48
2019-02-23T20:52:36.153Z,48.57
2019-02-23T20:56:40.376Z,48.71
2019-02-23T21:00:44.562Z,48.71
2019-02-23T21:04:48.806Z,48.45
2019-02-23T21:08:53.054Z,48.36
2019-02-23T21:12:57.539Z,48.45
2019-02-23T21:17:01.854Z,48.59
2019-02-23T21:21:06.093Z,48.86
2019-02-23T21:25:10.304Z,48.71
2019-02-23T21:29:14.870Z,48.63
2019-02-23T21:33:19.085Z,48.83
2019-02-23T21:37:23.335Z,49.03
2019-02-23T21:41:27.603Z,49.02
2019-02-23T21:45:31.878Z,49.23
2019-02-23T21:49:36.113Z,49.15
2019-02-23T21:53:40.334Z,49.15
2019-02-23T21:57:44.510Z,49.13
2019-02-23T22:01:48.756Z,49.05
2019-02-23T22:05:52.946Z,49.21
2019-02-23T22:09:57.330Z,49.39
2019-02-23T22:14:01.553Z,49.48
2019-02-23T22:18:05.791Z,49.52
2019-02-23T22:22:10.030Z,49.59
2019-02-23T22:26:14.629Z,49.55
2019-02-23T22:30:18.994Z,49.56
2019-02-23T22:34:23.236Z,49.63
2019-02-23T22:38:27.456Z,49.83
2019-02-23T22:42:31.649Z,49.90
2019-02-23T22:46:36.280Z,50.04
2019-02-23T22:50:40.456Z,50.20
2019-02-23T22:54:45.030Z,50.24
2019-02-23T22:58:49.263Z,50.35
2019-02-23T23:02:53.536Z,50.40
2019-02-23T23:06:57.764Z,50.48
2019-02-23T23:11:01.994Z,50.55
2019-02-23T23:15:06.682Z,50.73
2019-02-23T23:19:10.894Z,50.89
2019-02-23T23:23:15.120Z,51.01
2019-02-23T23:27:19.306Z,51.18
2019-02-23T23:31:23.527Z,51.19
2019-02-23T23:35:27.752Z,51.36
2019-02-23T23:39:31.992Z,51.52
2019-02-23T23:43:36.181Z,51.63
2019-02-23T23:47:40.458Z,51.67
2019-02-23T23:51:44.683Z,51.75
2019-02-23T23:55:48.912Z,51.76
2019-02-23T23:59:53.105Z,51.61
